Time;durP1;ratioP1;P1;durP2;ratioP2;P2;SDS_P1;SDS_P2;PMS_P1;PMS_P2;Temp;Humidity;BMP_temperature;BMP_pressure;BME280_temperature;BME280_humidity;BME280_pressure;Samples;Min_cycle;Max_cycle;Signal;HPM_P1;HPM_P2
2021/04/27 00:00:00;;;;;;;2.80;2.20;;;9.20;82.20;;;;;;5119426;28;20403;-82
2021/04/27 00:02:26;;;;;;;2.37;2.17;;;9.20;80.90;;;;;;5119356;28;20173;-82
2021/04/27 00:04:52;;;;;;;2.40;2.23;;;9.10;82.40;;;;;;5119157;28;20166;-83
2021/04/27 00:07:18;;;;;;;1.80;1.70;;;9.10;81.20;;;;;;5119004;28;20957;-83
2021/04/27 00:09:44;;;;;;;2.10;1.90;;;9.10;85.00;;;;;;5118741;28;20860;-82
2021/04/27 00:12:10;;;;;;;1.57;1.47;;;9.10;83.80;;;;;;5119262;28;20235;-83
2021/04/27 00:14:36;;;;;;;3.33;2.00;;;9.10;81.40;;;;;;5119840;28;20163;-82
2021/04/27 00:17:04;;;;;;;1.97;1.87;;;9.00;81.70;;;;;;5119764;28;20417;-83
2021/04/27 00:19:30;;;;;;;3.77;1.77;;;8.90;80.60;;;;;;5119969;28;20750;-82
2021/04/27 00:21:55;;;;;;;2.00;1.87;;;8.90;87.00;;;;;;5125382;28;20404;-84
2021/04/27 00:24:21;;;;;;;1.83;1.73;;;9.00;85.00;;;;;;5129043;28;20471;-83
2021/04/27 00:26:47;;;;;;;4.23;2.57;;;9.00;83.50;;;;;;5120292;28;20167;-83
2021/04/27 00:29:13;;;;;;;3.50;2.17;;;8.90;82.90;;;;;;5120112;28;20248;-83
2021/04/27 00:31:40;;;;;;;3.70;2.37;;;8.90;84.10;;;;;;5123748;28;20836;-83
2021/04/27 00:34:06;;;;;;;2.33;1.93;;;8.90;83.40;;;;;;5120530;28;20176;-84
2021/04/27 00:36:32;;;;;;;3.40;2.33;;;8.80;85.30;;;;;;5121320;28;20875;-83
2021/04/27 00:38:58;;;;;;;3.17;1.70;;;8.70;86.40;;;;;;5123999;28;20391;-83
2021/04/27 00:41:24;;;;;;;2.40;2.20;;;8.60;86.10;;;;;;5126042;28;20693;-83
2021/04/27 00:43:50;;;;;;;4.70;2.70;;;8.60;88.00;;;;;;5123502;28;20399;-83
2021/04/27 00:46:16;;;;;;;5.10;2.40;;;8.60;89.00;;;;;;5120081;28;20416;-83
2021/04/27 00:48:42;;;;;;;4.70;2.20;;;8.60;84.10;;;;;;5119665;28;20899;-83
2021/04/27 00:51:07;;;;;;;2.67;1.90;;;8.60;85.00;;;;;;5119361;28;20177;-83
2021/04/27 00:53:33;;;;;;;2.63;2.17;;;8.60;86.30;;;;;;5119497;28;20165;-83
2021/04/27 00:55:59;;;;;;;2.37;2.17;;;8.60;87.50;;;;;;5119358;28;20187;-83
2021/04/27 00:58:27;;;;;;;7.73;2.10;;;8.60;88.80;;;;;;5118960;28;20162;-83
2021/04/27 01:00:54;;;;;;;3.27;1.93;;;8.50;90.10;;;;;;5119469;28;20158;-83
2021/04/27 01:03:21;;;;;;;3.80;1.90;;;8.50;87.00;;;;;;5119343;28;20396;-83
2021/04/27 01:05:48;;;;;;;2.23;1.80;;;8.50;87.30;;;;;;5119243;28;20447;-83
2021/04/27 01:08:31;;;;;;;5.60;2.20;;;8.50;90.80;;;;;;5118988;28;20466;-83
2021/04/27 01:11:19;;;;;;;2.37;2.13;;;8.50;88.90;;;;;;5118838;28;20424;-83
2021/04/27 01:13:58;;;;;;;4.80;2.30;;;8.40;85.10;;;;;;5118952;28;20453;-83
2021/04/27 01:16:24;;;;;;;5.60;1.90;;;8.30;91.00;;;;;;5119435;28;20396;-83
2021/04/27 01:18:53;;;;;;;3.10;2.17;;;8.40;90.80;;;;;;5100295;28;20864;-83
2021/04/27 01:21:22;;;;;;;1.63;1.53;;;8.30;89.20;;;;;;5118874;28;20399;-83
2021/04/27 01:24:10;;;;;;;2.57;1.73;;;8.20;86.70;;;;;;5118348;28;20391;-83
2021/04/27 01:26:47;;;;;;;2.33;1.87;;;8.30;91.20;;;;;;5117828;28;20465;-83
2021/04/27 01:29:17;;;;;;;2.80;2.60;;;8.30;91.10;;;;;;5100045;28;20560;-83
2021/04/27 01:31:44;;;;;;;2.87;2.43;;;8.40;90.50;;;;;;5117780;28;20435;-82
2021/04/27 01:34:12;;;;;;;2.90;2.20;;;8.40;88.90;;;;;;5116840;28;20396;-82
2021/04/27 01:36:39;;;;;;;3.90;2.47;;;8.40;91.40;;;;;;5118030;28;20432;-82
2021/04/27 01:39:07;;;;;;;3.80;2.20;;;8.10;90.60;;;;;;5119359;28;20400;-83
2021/04/27 01:41:35;;;;;;;5.57;3.10;;;8.10;85.50;;;;;;5120519;28;20471;-82
2021/04/27 01:44:03;;;;;;;5.87;2.67;;;8.20;92.50;;;;;;5122097;28;20456;-83
2021/04/27 01:46:29;;;;;;;3.70;2.50;;;8.30;89.10;;;;;;5120776;28;20400;-83
2021/04/27 01:48:55;;;;;;;4.13;2.50;;;8.30;89.90;;;;;;5121836;28;20467;-83
2021/04/27 01:51:21;;;;;;;2.70;2.20;;;8.00;90.60;;;;;;5121088;28;20785;-83
2021/04/27 01:53:48;;;;;;;3.73;2.50;;;7.60;88.50;;;;;;5122107;28;20399;-82
2021/04/27 01:56:14;;;;;;;2.83;2.30;;;7.90;90.10;;;;;;5120895;28;20425;-83
2021/04/27 01:58:40;;;;;;;4.57;2.27;;;8.00;91.40;;;;;;5121185;28;20808;-83
2021/04/27 02:01:06;;;;;;;1.93;1.73;;;8.10;90.10;;;;;;5123030;28;20248;-83
2021/04/27 02:03:41;;;;;;;14.53;2.93;;;8.00;87.40;;;;;;5122619;28;20395;-82
2021/04/27 02:06:07;;;;;;;2.43;1.90;;;8.00;87.60;;;;;;5123699;28;20934;-83
2021/04/27 02:08:33;;;;;;;3.73;2.47;;;8.10;90.00;;;;;;5124411;28;20619;-83
2021/04/27 02:10:59;;;;;;;3.00;2.17;;;7.70;83.40;;;;;;5121004;28;20452;-82
2021/04/27 02:13:25;;;;;;;2.00;1.80;;;7.80;90.20;;;;;;5119677;28;20398;-82
2021/04/27 02:15:51;;;;;;;2.00;1.90;;;7.40;86.90;;;;;;5121225;28;20479;-82
2021/04/27 02:18:27;;;;;;;3.17;2.00;;;7.50;87.00;;;;;;5121042;28;20438;-82
2021/04/27 02:20:57;;;;;;;4.80;2.00;;;7.70;89.60;;;;;;5119888;28;20169;-82
2021/04/27 02:23:24;;;;;;;3.00;1.80;;;7.90;91.40;;;;;;5120673;28;20465;-81
2021/04/27 02:25:52;;;;;;;3.33;2.87;;;7.90;91.10;;;;;;5120512;28;20401;-83
2021/04/27 02:28:19;;;;;;;4.10;2.57;;;8.00;89.50;;;;;;5120039;28;20482;-82
2021/04/27 02:30:46;;;;;;;3.50;2.30;;;8.00;90.90;;;;;;5119549;28;20601;-82
2021/04/27 02:33:14;;;;;;;4.07;2.73;;;7.80;93.20;;;;;;5119933;28;20392;-82
2021/04/27 02:35:40;;;;;;;4.10;2.33;;;7.70;91.60;;;;;;5120804;28;20435;-82
2021/04/27 02:38:06;;;;;;;2.87;1.60;;;7.80;90.30;;;;;;5128254;28;20404;-82
2021/04/27 02:40:33;;;;;;;4.23;2.10;;;7.50;83.00;;;;;;5136184;28;20389;-82
2021/04/27 02:43:00;;;;;;;3.43;2.17;;;7.50;83.80;;;;;;5125471;28;20691;-82
2021/04/27 02:45:34;;;;;;;2.53;2.23;;;7.70;88.80;;;;;;5120362;28;20388;-82
2021/04/27 02:48:15;;;;;;;4.47;2.63;;;7.60;87.10;;;;;;5103053;28;20446;-82
2021/04/27 02:50:44;;;;;;;2.87;1.70;;;7.50;90.50;;;;;;5110884;28;20677;-82
2021/04/27 02:53:12;;;;;;;1.93;1.73;;;7.70;86.50;;;;;;5119822;28;20392;-82
2021/04/27 02:55:39;;;;;;;3.43;1.80;;;7.50;89.90;;;;;;5119102;28;20410;-82
2021/04/27 02:58:05;;;;;;;3.00;2.20;;;7.40;85.20;;;;;;5119968;28;20723;-82
2021/04/27 03:00:31;;;;;;;4.70;2.37;;;7.40;84.70;;;;;;5120590;28;20400;-83
2021/04/27 03:02:57;;;;;;;3.27;1.93;;;7.50;88.80;;;;;;5119772;28;20211;-81
2021/04/27 03:05:23;;;;;;;1.77;1.67;;;7.20;85.90;;;;;;5120154;28;20396;-81
2021/04/27 03:07:49;;;;;;;3.37;1.83;;;7.50;90.10;;;;;;5120082;28;20213;-82
2021/04/27 03:10:16;;;;;;;5.60;1.60;;;7.60;91.90;;;;;;5119134;28;20714;-82
2021/04/27 03:12:42;;;;;;;2.80;2.20;;;7.60;91.10;;;;;;5119881;28;20512;-82
2021/04/27 03:15:10;;;;;;;4.20;2.17;;;7.40;87.20;;;;;;5124399;28;20399;-82
2021/04/27 03:17:36;;;;;;;2.50;1.90;;;7.30;90.20;;;;;;5127398;28;20483;-82
2021/04/27 03:20:03;;;;;;;2.10;1.90;;;7.30;87.80;;;;;;5122729;28;20428;-83
2021/04/27 03:22:29;;;;;;;2.10;1.90;;;7.20;87.40;;;;;;5118246;28;20479;-82
2021/04/27 03:24:54;;;;;;;4.13;1.90;;;7.40;91.00;;;;;;5119539;28;20423;-83
2021/04/27 03:27:20;;;;;;;3.23;2.50;;;7.40;91.90;;;;;;5118356;28;20190;-83
2021/04/27 03:29:49;;;;;;;2.43;2.23;;;7.50;92.00;;;;;;5119786;28;20158;-83
2021/04/27 03:32:15;;;;;;;2.50;2.30;;;7.60;90.70;;;;;;5123035;28;20478;-83
2021/04/27 03:34:41;;;;;;;4.40;1.80;;;7.70;92.00;;;;;;5124598;28;20387;-83
2021/04/27 03:37:07;;;;;;;2.30;1.90;;;7.70;92.20;;;;;;5121771;28;20757;-82
2021/04/27 03:39:33;;;;;;;2.63;2.10;;;7.30;89.60;;;;;;5121096;28;20406;-82
2021/04/27 03:41:59;;;;;;;2.67;2.23;;;7.40;90.80;;;;;;5122201;28;20245;-82
2021/04/27 03:44:25;;;;;;;1.97;1.87;;;7.30;91.40;;;;;;5122541;28;20407;-82
2021/04/27 03:46:51;;;;;;;1.70;1.60;;;7.10;90.30;;;;;;5129226;27;20482;-83
2021/04/27 03:49:16;;;;;;;2.20;2.00;;;7.40;91.10;;;;;;5141528;27;20297;-83
2021/04/27 03:51:42;;;;;;;3.50;3.03;;;7.30;94.00;;;;;;5139933;27;20161;-82
2021/04/27 03:54:08;;;;;;;2.67;1.97;;;7.50;92.20;;;;;;5139678;27;20513;-82
2021/04/27 03:56:34;;;;;;;2.87;1.90;;;7.40;90.00;;;;;;5120950;27;20157;-83
2021/04/27 03:59:00;;;;;;;2.93;2.30;;;7.50;91.20;;;;;;5140391;27;20490;-82
2021/04/27 04:01:26;;;;;;;8.40;1.90;;;7.30;90.60;;;;;;5125713;27;20222;-82
2021/04/27 04:03:52;;;;;;;2.03;1.93;;;7.40;89.30;;;;;;5145784;27;20220;-82
2021/04/27 04:06:17;;;;;;;2.17;2.07;;;7.20;90.80;;;;;;5146086;27;20391;-82
2021/04/27 04:08:44;;;;;;;2.40;2.20;;;7.20;91.20;;;;;;5145018;27;20269;-82
2021/04/27 04:11:10;;;;;;;5.17;2.17;;;7.40;98.40;;;;;;5140877;27;20551;-82
2021/04/27 04:13:36;;;;;;;5.43;2.40;;;7.50;93.10;;;;;;5139970;27;20410;-82
2021/04/27 04:16:01;;;;;;;2.10;1.90;;;7.60;92.70;;;;;;5139833;27;20161;-82
2021/04/27 04:18:27;;;;;;;3.13;2.40;;;7.60;93.70;;;;;;5139452;27;20169;-82
2021/04/27 04:20:54;;;;;;;6.03;2.07;;;7.70;96.20;;;;;;5139794;27;20158;-83
2021/04/27 04:23:20;;;;;;;2.97;2.77;;;7.80;94.10;;;;;;5120545;27;20204;-81
2021/04/27 04:25:45;;;;;;;5.20;2.93;;;7.60;94.00;;;;;;5138986;27;20379;-82
2021/04/27 04:28:11;;;;;;;5.17;2.47;;;7.60;95.00;;;;;;5139087;27;20189;-82
2021/04/27 04:30:38;;;;;;;4.80;2.67;;;7.50;92.50;;;;;;5120800;27;20546;-82
2021/04/27 04:33:04;;;;;;;2.73;2.40;;;7.60;93.90;;;;;;5138755;27;20519;-82
2021/04/27 04:35:31;;;;;;;4.23;2.57;;;7.70;92.10;;;;;;5120104;27;20395;-83
2021/04/27 04:37:57;;;;;;;4.77;2.60;;;7.70;93.70;;;;;;5138847;27;20402;-82
2021/04/27 04:40:23;;;;;;;2.93;2.63;;;7.70;92.80;;;;;;5138633;27;20395;-82
2021/04/27 04:42:49;;;;;;;2.77;2.57;;;7.70;93.10;;;;;;5138052;27;20466;-83
2021/04/27 04:45:17;;;;;;;4.97;3.33;;;7.70;94.00;;;;;;5119991;27;20889;-83
2021/04/27 04:47:47;;;;;;;3.15;2.40;;;7.70;95.90;;;;;;5137488;27;20421;-82
2021/04/27 04:50:15;;;;;;;4.00;3.10;;;7.70;93.70;;;;;;5138682;27;20153;-82
2021/04/27 04:52:41;;;;;;;3.90;2.43;;;7.70;93.60;;;;;;5138486;27;20843;-82
2021/04/27 04:55:08;;;;;;;3.20;2.90;;;7.80;96.70;;;;;;5138237;27;20383;-82
2021/04/27 04:57:37;;;;;;;3.63;2.47;;;8.00;93.20;;;;;;5138580;27;20871;-83
2021/04/27 05:00:07;;;;;;;5.00;3.10;;;7.90;92.50;;;;;;5120376;28;20387;-82
2021/04/27 05:02:33;;;;;;;6.37;2.73;;;7.80;94.10;;;;;;5138121;27;20391;-83
2021/04/27 05:04:59;;;;;;;2.90;1.90;;;7.80;94.10;;;;;;5138082;27;20391;-82
2021/04/27 05:07:26;;;;;;;2.93;2.70;;;7.80;93.80;;;;;;5138086;27;20207;-82
2021/04/27 05:09:53;;;;;;;3.37;2.57;;;7.90;94.60;;;;;;5120161;28;20145;-82
2021/04/27 05:12:19;;;;;;;6.80;2.90;;;7.90;96.50;;;;;;5120014;28;20421;-83
2021/04/27 05:14:45;;;;;;;5.87;3.70;;;7.80;94.80;;;;;;5119374;28;20425;-83
2021/04/27 05:17:14;;;;;;;3.53;2.53;;;7.70;94.60;;;;;;5119879;28;20399;-83
2021/04/27 05:19:40;;;;;;;3.00;2.70;;;7.80;95.30;;;;;;5129270;28;20200;-82
2021/04/27 05:22:08;;;;;;;4.43;3.17;;;7.70;93.50;;;;;;5138462;28;20387;-82
2021/04/27 05:24:36;;;;;;;5.77;2.87;;;7.90;95.90;;;;;;5138327;28;20391;-82
2021/04/27 05:27:02;;;;;;;4.87;3.40;;;8.10;95.10;;;;;;5138027;28;20413;-83
2021/04/27 05:29:28;;;;;;;4.30;3.90;;;8.20;94.70;;;;;;5138789;28;20436;-83
2021/04/27 05:31:54;;;;;;;2.80;2.53;;;8.20;97.80;;;;;;5120235;28;20764;-82
2021/04/27 05:34:20;;;;;;;2.80;2.60;;;8.20;94.60;;;;;;5122694;28;20167;-83
2021/04/27 05:36:46;;;;;;;4.33;2.80;;;8.30;95.30;;;;;;5138308;27;20176;-82
2021/04/27 05:39:13;;;;;;;4.10;2.27;;;8.30;93.90;;;;;;5139979;27;20468;-83
2021/04/27 05:41:40;;;;;;;3.50;3.17;;;8.40;95.20;;;;;;5144921;27;20519;-83
2021/04/27 05:44:07;;;;;;;3.03;2.20;;;8.50;93.30;;;;;;5119896;28;20964;-82
2021/04/27 05:46:33;;;;;;;6.43;3.03;;;8.40;92.10;;;;;;5138207;27;20421;-82
2021/04/27 05:48:59;;;;;;;5.60;3.70;;;8.50;95.60;;;;;;5119879;28;20434;-82
2021/04/27 05:51:24;;;;;;;4.03;3.40;;;8.50;94.30;;;;;;5138716;27;20188;-82
2021/04/27 05:53:51;;;;;;;5.60;2.70;;;8.00;90.40;;;;;;5118580;28;20668;-82
2021/04/27 05:56:25;;;;;;;6.63;2.43;;;7.90;92.20;;;;;;5103936;28;20228;-82
2021/04/27 05:58:51;;;;;;;4.13;2.63;;;8.30;92.20;;;;;;5108319;28;20411;-82
2021/04/27 06:01:17;;;;;;;4.10;2.43;;;8.60;93.50;;;;;;5097860;28;20434;-82
2021/04/27 06:03:43;;;;;;;5.80;2.60;;;8.80;92.70;;;;;;5095493;28;20293;-83
2021/04/27 06:06:09;;;;;;;5.23;2.87;;;8.70;91.70;;;;;;5110337;28;20185;-83
2021/04/27 06:08:36;;;;;;;6.43;3.10;;;8.30;92.40;;;;;;5116272;28;20233;-82
2021/04/27 06:11:06;;;;;;;5.57;2.77;;;8.30;93.00;;;;;;5113145;28;20423;-82
2021/04/27 06:13:34;;;;;;;2.93;2.30;;;8.80;90.80;;;;;;5095147;28;20389;-82
2021/04/27 06:16:00;;;;;;;6.13;3.07;;;9.00;91.10;;;;;;5094865;28;20400;-83
2021/04/27 06:18:26;;;;;;;2.90;2.70;;;9.10;92.90;;;;;;5110405;28;20424;-83
2021/04/27 06:20:52;;;;;;;6.30;3.03;;;9.10;93.30;;;;;;5115829;28;20407;-83
2021/04/27 06:23:17;;;;;;;4.03;2.50;;;9.20;93.00;;;;;;5111314;28;20188;-83
2021/04/27 06:25:43;;;;;;;3.10;2.80;;;9.40;92.30;;;;;;5152597;27;20185;-84
2021/04/27 06:28:13;;;;;;;3.60;3.30;;;9.40;90.10;;;;;;5129679;27;20522;-83
2021/04/27 06:30:40;;;;;;;3.10;2.90;;;9.50;87.10;;;;;;5144143;27;20634;-82
2021/04/27 06:33:06;;;;;;;3.40;3.10;;;9.40;88.30;;;;;;5148869;27;20419;-82
2021/04/27 06:35:32;;;;;;;2.80;2.50;;;9.20;85.80;;;;;;5125171;27;20402;-83
2021/04/27 06:37:58;;;;;;;3.97;3.50;;;8.90;90.20;;;;;;5151918;27;20421;-82
2021/04/27 06:40:24;;;;;;;6.17;3.03;;;8.80;85.00;;;;;;5148079;27;20177;-82
2021/04/27 06:42:50;;;;;;;3.07;2.87;;;8.70;89.30;;;;;;5144670;27;20491;-82
2021/04/27 06:45:16;;;;;;;4.23;3.30;;;8.90;90.40;;;;;;5134804;27;20512;-82
2021/04/27 06:47:43;;;;;;;4.33;3.40;;;9.20;90.70;;;;;;5133528;27;20466;-82
2021/04/27 06:50:09;;;;;;;6.03;3.47;;;9.50;90.10;;;;;;5141722;27;20720;-82
2021/04/27 06:52:35;;;;;;;2.70;2.47;;;9.30;87.50;;;;;;5129881;27;20460;-82
2021/04/27 06:55:02;;;;;;;3.57;3.27;;;9.20;90.90;;;;;;5145224;27;20810;-83
2021/04/27 06:57:28;;;;;;;5.17;3.70;;;9.10;87.70;;;;;;5120789;27;20628;-82
2021/04/27 06:59:54;;;;;;;4.90;2.67;;;8.80;85.70;;;;;;5133128;27;20479;-82
2021/04/27 07:02:20;;;;;;;3.37;2.77;;;8.90;86.50;;;;;;5132095;27;20880;-83
2021/04/27 07:04:49;;;;;;;2.80;2.60;;;9.20;90.00;;;;;;5144602;27;20443;-83
2021/04/27 07:07:15;;;;;;;3.50;3.27;;;9.40;87.40;;;;;;5100240;28;20467;-83
2021/04/27 07:09:41;;;;;;;2.70;2.50;;;9.60;87.30;;;;;;5112247;27;20430;-83
2021/04/27 07:12:07;;;;;;;3.07;2.77;;;9.90;88.50;;;;;;5137808;27;20180;-83
2021/04/27 07:14:33;;;;;;;7.17;3.13;;;9.80;85.00;;;;;;5147240;27;20222;-84
2021/04/27 07:16:59;;;;;;;8.70;3.47;;;9.90;89.50;;;;;;5076082;28;20430;-81
2021/04/27 07:19:28;;;;;;;5.57;3.20;;;9.40;82.00;;;;;;5076661;28;20470;-80
2021/04/27 07:21:54;;;;;;;4.13;2.97;;;9.60;85.60;;;;;;5062022;28;20941;-82
2021/04/27 07:24:20;;;;;;;3.87;2.80;;;9.20;80.00;;;;;;5064268;28;20819;-81
2021/04/27 07:26:46;;;;;;;5.33;3.50;;;9.40;85.20;;;;;;5068631;28;20224;-83
2021/04/27 07:29:16;;;;;;;3.40;3.10;;;9.50;84.90;;;;;;5031119;28;20418;-83
2021/04/27 07:31:42;;;;;;;11.43;3.37;;;9.70;81.10;;;;;;5064723;28;20429;-83
2021/04/27 07:34:08;;;;;;;4.07;2.97;;;10.00;85.80;;;;;;5065003;28;20903;-82
2021/04/27 07:36:35;;;;;;;3.43;3.13;;;10.00;82.60;;;;;;5063534;28;20438;-82
2021/04/27 07:39:03;;;;;;;7.80;3.27;;;10.20;91.50;;;;;;5049072;28;20456;-79
2021/04/27 07:41:29;;;;;;;6.70;3.10;;;9.80;80.40;;;;;;5048309;28;20499;-81
2021/04/27 07:43:55;;;;;;;7.00;4.40;;;9.80;81.30;;;;;;5078043;28;20426;-81
2021/04/27 07:46:21;;;;;;;4.27;3.20;;;9.80;80.70;;;;;;5039812;28;20248;-80
2021/04/27 07:48:47;;;;;;;3.93;3.57;;;9.80;87.20;;;;;;5130536;27;20224;-80
2021/04/27 07:51:14;;;;;;;5.53;4.10;;;9.90;84.40;;;;;;5143388;27;20409;-79
2021/04/27 07:53:41;;;;;;;4.90;4.10;;;10.00;80.30;;;;;;5141419;27;20429;-79
2021/04/27 07:56:07;;;;;;;3.87;3.37;;;10.20;80.60;;;;;;5111607;27;20157;-79
2021/04/27 07:58:33;;;;;;;4.30;3.43;;;10.40;77.90;;;;;;5147361;27;20455;-78
2021/04/27 08:00:59;;;;;;;4.43;3.50;;;10.20;82.10;;;;;;5131666;27;20434;-80
2021/04/27 08:03:25;;;;;;;4.23;3.60;;;10.30;82.30;;;;;;5145712;27;20458;-80
2021/04/27 08:05:51;;;;;;;4.73;3.17;;;10.40;81.00;;;;;;5116318;27;20430;-81
2021/04/27 08:08:17;;;;;;;4.97;3.70;;;10.60;82.20;;;;;;5131690;27;20477;-80
2021/04/27 08:10:43;;;;;;;4.00;3.60;;;10.90;83.00;;;;;;5139113;27;20427;-81
2021/04/27 08:13:09;;;;;;;11.45;3.90;;;11.10;83.80;;;;;;5126730;27;20421;-80
2021/04/27 08:15:35;;;;;;;5.27;3.90;;;11.00;84.10;;;;;;5140196;27;20504;-83
2021/04/27 08:18:02;;;;;;;4.97;3.60;;;11.10;83.30;;;;;;5124682;27;20192;-83
2021/04/27 08:20:30;;;;;;;5.37;4.30;;;11.10;80.70;;;;;;5139146;27;20816;-83
2021/04/27 08:22:56;;;;;;;4.63;4.17;;;11.20;79.70;;;;;;5125080;27;20761;-83
2021/04/27 08:25:23;;;;;;;4.00;3.60;;;11.00;77.90;;;;;;5085065;27;20400;-83
2021/04/27 08:27:50;;;;;;;5.47;3.77;;;11.20;81.10;;;;;;5139030;27;20950;-82
2021/04/27 08:30:18;;;;;;;5.73;4.37;;;11.10;79.80;;;;;;5120769;27;20429;-82
2021/04/27 08:32:44;;;;;;;4.63;3.87;;;11.30;82.40;;;;;;5137347;27;20418;-81
2021/04/27 08:35:11;;;;;;;4.43;4.13;;;11.20;75.20;;;;;;5121500;27;20423;-81
2021/04/27 08:37:38;;;;;;;4.30;3.70;;;11.20;78.00;;;;;;5127782;27;20430;-81
2021/04/27 08:40:06;;;;;;;8.50;4.37;;;11.20;81.20;;;;;;5116228;27;20429;-82
2021/04/27 08:42:34;;;;;;;7.00;5.37;;;11.10;81.20;;;;;;5144907;27;20885;-82
2021/04/27 08:45:02;;;;;;;7.37;4.97;;;11.50;81.40;;;;;;5137916;27;20778;-81
2021/04/27 08:47:28;;;;;;;7.60;4.47;;;11.40;77.70;;;;;;5117980;27;20478;-83
2021/04/27 08:49:54;;;;;;;7.43;4.00;;;11.40;75.00;;;;;;5136853;27;20438;-83
2021/04/27 08:52:23;;;;;;;6.40;4.90;;;11.60;75.10;;;;;;5130103;27;20411;-83
2021/04/27 08:54:49;;;;;;;10.70;5.47;;;11.60;75.50;;;;;;5128951;27;20464;-80
2021/04/27 08:57:15;;;;;;;4.60;3.97;;;11.40;74.00;;;;;;5118127;28;20415;-81
2021/04/27 08:59:41;;;;;;;7.13;4.37;;;11.70;76.60;;;;;;5137473;27;20196;-81
2021/04/27 09:02:08;;;;;;;4.80;3.83;;;11.60;75.40;;;;;;5123481;27;20502;-82
2021/04/27 09:04:49;;;;;;;5.90;4.60;;;11.60;74.70;;;;;;5136859;27;20532;-82
2021/04/27 09:07:17;;;;;;;8.40;4.43;;;11.70;74.00;;;;;;5107342;28;20584;-82
2021/04/27 09:09:47;;;;;;;6.13;4.13;;;12.10;73.70;;;;;;5136355;27;20501;-82
2021/04/27 09:12:18;;;;;;;8.50;4.40;;;12.30;76.00;;;;;;5115775;28;20497;-82
2021/04/27 09:14:44;;;;;;;5.13;4.63;;;12.30;74.30;;;;;;5103787;28;20433;-82
2021/04/27 09:17:12;;;;;;;5.23;4.20;;;12.00;74.70;;;;;;5125682;28;20412;-82
2021/04/27 09:19:48;;;;;;;6.23;4.60;;;12.10;74.30;;;;;;5120763;28;20213;-82
2021/04/27 09:22:24;;;;;;;8.17;4.67;;;12.10;73.00;;;;;;5127303;28;20410;-82
2021/04/27 09:24:55;;;;;;;5.67;4.50;;;12.30;75.60;;;;;;5130423;27;20418;-81
2021/04/27 09:27:46;;;;;;;6.90;5.10;;;12.20;72.10;;;;;;5111080;28;20439;-82
2021/04/27 09:30:19;;;;;;;5.60;4.57;;;12.30;71.80;;;;;;5110184;28;20419;-79
2021/04/27 09:32:54;;;;;;;5.37;3.97;;;12.80;76.00;;;;;;5095232;28;20417;-81
2021/04/27 09:35:27;;;;;;;6.23;5.17;;;12.60;73.20;;;;;;5075955;28;20448;-81
2021/04/27 09:38:27;;;;;;;4.60;3.70;;;12.80;73.30;;;;;;5092647;28;20428;-81
2021/04/27 09:41:03;;;;;;;4.90;4.37;;;12.60;74.50;;;;;;5100417;28;20837;-80
2021/04/27 09:43:32;;;;;;;6.00;4.50;;;12.90;71.30;;;;;;5085650;28;20489;-83
2021/04/27 09:46:03;;;;;;;6.57;4.67;;;13.20;75.70;;;;;;5070241;28;20425;-83
2021/04/27 09:48:41;;;;;;;7.97;4.47;;;13.50;71.80;;;;;;5085947;28;20441;-83
2021/04/27 09:51:21;;;;;;;6.60;3.80;;;13.00;69.00;;;;;;5088893;28;20424;-81
2021/04/27 09:53:57;;;;;;;9.17;5.30;;;12.70;71.60;;;;;;5077795;28;20428;-83
2021/04/27 09:56:41;;;;;;;5.57;4.90;;;13.10;72.40;;;;;;5077308;28;20416;-82
2021/04/27 09:59:12;;;;;;;6.50;5.33;;;13.30;72.60;;;;;;5060725;28;20822;-82
2021/04/27 10:01:39;;;;;;;5.50;4.47;;;13.60;74.20;;;;;;5086287;28;20440;-83
2021/04/27 10:04:06;;;;;;;5.00;4.50;;;13.90;71.20;;;;;;5126763;27;20530;-83
2021/04/27 10:06:35;;;;;;;6.27;5.50;;;14.00;69.50;;;;;;5124183;27;20411;-82
2021/04/27 10:09:03;;;;;;;7.03;5.43;;;14.10;71.80;;;;;;5089974;27;20466;-82
2021/04/27 10:11:29;;;;;;;5.90;4.77;;;14.30;68.20;;;;;;5138102;27;20499;-82
2021/04/27 10:13:56;;;;;;;4.87;4.37;;;13.80;67.50;;;;;;5128027;27;20512;-82
2021/04/27 10:16:23;;;;;;;8.15;5.80;;;13.80;70.00;;;;;;5137512;27;20413;-82
2021/04/27 10:18:52;;;;;;;5.03;4.17;;;14.10;69.20;;;;;;5102879;27;20226;-82
2021/04/27 10:21:18;;;;;;;7.30;4.80;;;14.20;68.80;;;;;;5121806;27;20415;-82
2021/04/27 10:23:51;;;;;;;5.87;4.77;;;14.20;70.70;;;;;;5123301;27;20411;-82
2021/04/27 10:26:21;;;;;;;7.20;4.90;;;13.80;68.20;;;;;;5121806;27;20197;-82
2021/04/27 10:29:00;;;;;;;6.33;4.30;;;14.10;67.40;;;;;;5106194;27;20577;-82
2021/04/27 10:31:28;;;;;;;5.70;4.30;;;14.60;67.30;;;;;;5122554;27;20542;-83
2021/04/27 10:34:05;;;;;;;6.97;5.00;;;14.60;65.70;;;;;;5118488;27;20445;-81
2021/04/27 10:36:35;;;;;;;5.50;5.00;;;14.50;66.10;;;;;;5125581;27;20970;-81
2021/04/27 10:39:06;;;;;;;5.23;4.73;;;14.90;71.40;;;;;;5140054;27;20411;-83
2021/04/27 10:41:52;;;;;;;6.03;5.43;;;14.60;64.40;;;;;;5141310;27;20447;-82
2021/04/27 10:44:19;;;;;;;5.60;4.83;;;14.70;66.20;;;;;;5137807;27;20509;-83
2021/04/27 10:46:48;;;;;;;6.77;5.70;;;14.90;65.10;;;;;;5120050;28;20403;-82
2021/04/27 10:49:23;;;;;;;8.90;5.70;;;15.50;69.70;;;;;;5138276;27;20588;-83
2021/04/27 10:51:51;;;;;;;6.10;5.50;;;15.90;71.10;;;;;;5138418;27;20415;-83
2021/04/27 10:54:22;;;;;;;6.60;5.67;;;15.90;62.00;;;;;;5136316;27;20439;-83
2021/04/27 10:56:54;;;;;;;10.13;7.40;;;15.60;64.10;;;;;;5151775;27;20427;-83
2021/04/27 10:59:24;;;;;;;5.43;4.17;;;15.20;62.30;;;;;;5142798;27;20432;-83
2021/04/27 11:02:17;;;;;;;5.13;4.73;;;15.30;62.20;;;;;;5100610;28;20424;-83
2021/04/27 11:04:46;;;;;;;6.57;4.80;;;15.60;64.00;;;;;;5134496;27;20435;-81
2021/04/27 11:07:31;;;;;;;4.80;4.40;;;15.70;62.30;;;;;;5122945;27;20550;-82
2021/04/27 11:10:20;;;;;;;5.90;4.53;;;15.90;59.60;;;;;;5141989;27;20439;-82
2021/04/27 11:12:58;;;;;;;6.50;5.40;;;15.70;59.90;;;;;;5135157;27;20416;-81
2021/04/27 11:15:30;;;;;;;6.63;5.03;;;16.30;58.80;;;;;;5127260;27;20273;-82
2021/04/27 11:18:08;;;;;;;8.00;4.83;;;15.90;59.10;;;;;;5114192;27;20403;-81
2021/04/27 11:20:54;;;;;;;4.13;3.73;;;16.70;59.30;;;;;;5125969;27;20422;-81
2021/04/27 11:23:38;;;;;;;5.43;4.77;;;17.00;61.00;;;;;;5109758;27;20419;-81
2021/04/27 11:26:42;;;;;;;5.07;4.60;;;17.90;60.40;;;;;;5129253;27;20437;-81
2021/04/27 11:29:14;;;;;;;4.80;3.80;;;18.50;57.70;;;;;;5136705;27;20993;-81
2021/04/27 11:31:54;;;;;;;5.63;5.00;;;18.80;56.30;;;;;;5129578;27;20482;-81
2021/04/27 11:34:20;;;;;;;5.20;4.70;;;18.80;56.80;;;;;;5118526;27;20417;-83
2021/04/27 11:36:46;;;;;;;5.13;4.40;;;18.40;56.40;;;;;;5135841;27;20419;-82
2021/04/27 11:39:18;;;;;;;4.70;4.30;;;19.00;57.10;;;;;;5130447;27;20410;-82
2021/04/27 11:41:52;;;;;;;5.40;4.90;;;19.00;52.00;;;;;;5147584;27;20315;-82
2021/04/27 11:44:20;;;;;;;5.60;5.10;;;19.70;53.50;;;;;;5120828;27;20457;-82
2021/04/27 11:47:15;;;;;;;5.33;4.83;;;18.30;52.60;;;;;;5120526;27;20417;-82
2021/04/27 11:49:48;;;;;;;5.80;5.17;;;17.60;53.00;;;;;;5122597;27;20410;-82
2021/04/27 11:52:15;;;;;;;9.10;4.87;;;18.50;55.90;;;;;;5137296;27;20406;-82
2021/04/27 11:54:41;;;;;;;5.23;4.73;;;19.90;52.90;;;;;;5103120;27;20414;-83
2021/04/27 11:57:24;;;;;;;6.07;4.73;;;20.60;50.90;;;;;;5138027;27;20410;-82
2021/04/27 11:59:59;;;;;;;7.87;5.60;;;21.90;48.60;;;;;;5139587;27;20403;-82
2021/04/27 12:02:31;;;;;;;4.50;4.03;;;19.90;49.50;;;;;;5116913;27;20895;-82
2021/04/27 12:04:58;;;;;;;5.50;4.50;;;19.80;50.90;;;;;;5136090;27;20779;-82
2021/04/27 12:07:27;;;;;;;4.73;4.33;;;19.90;49.90;;;;;;5102208;28;20783;-83
2021/04/27 12:09:55;;;;;;;5.30;4.77;;;19.20;51.20;;;;;;5136707;27;20413;-82
2021/04/27 12:12:22;;;;;;;11.67;5.37;;;18.40;50.70;;;;;;5134822;27;20417;-82
2021/04/27 12:14:50;;;;;;;5.93;5.43;;;17.70;51.30;;;;;;5139076;27;20534;-82
2021/04/27 12:17:32;;;;;;;4.70;4.20;;;17.00;50.80;;;;;;5104051;27;20415;-82
2021/04/27 12:20:07;;;;;;;22.23;6.13;;;17.50;52.00;;;;;;5121488;27;20403;-82
2021/04/27 12:22:39;;;;;;;4.40;3.73;;;18.20;52.90;;;;;;5138393;27;20407;-82
2021/04/27 12:25:15;;;;;;;10.40;5.30;;;18.20;50.40;;;;;;5138355;27;20564;-82
2021/04/27 12:27:41;;;;;;;4.27;3.87;;;17.80;51.50;;;;;;5138463;27;20520;-82
2021/04/27 12:30:10;;;;;;;6.30;4.47;;;18.60;50.80;;;;;;5138087;27;20405;-82
2021/04/27 12:32:39;;;;;;;4.97;3.90;;;17.50;51.00;;;;;;5120223;27;20507;-82
2021/04/27 12:35:08;;;;;;;8.10;4.03;;;19.30;52.10;;;;;;5122522;27;20401;-83
2021/04/27 12:37:37;;;;;;;5.27;4.77;;;18.00;50.10;;;;;;5140485;27;20454;-84
2021/04/27 12:40:19;;;;;;;6.40;4.57;;;19.60;53.20;;;;;;5123515;27;20773;-82
2021/04/27 12:42:51;;;;;;;4.60;4.20;;;21.20;50.40;;;;;;5109489;27;20446;-83
2021/04/27 12:45:17;;;;;;;5.50;4.30;;;21.40;50.60;;;;;;5145156;27;20403;-82
2021/04/27 12:47:47;;;;;;;4.43;4.03;;;20.00;46.60;;;;;;5141492;27;20398;-82
2021/04/27 12:50:18;;;;;;;4.17;3.83;;;18.90;49.60;;;;;;5127475;27;20399;-82
2021/04/27 12:53:01;;;;;;;7.43;4.50;;;18.70;49.10;;;;;;5147267;27;20395;-82
2021/04/27 12:55:32;;;;;;;5.07;4.57;;;18.30;51.00;;;;;;5143793;27;20430;-82
2021/04/27 12:58:12;;;;;;;6.30;4.90;;;19.90;49.10;;;;;;5081792;28;20452;-83
2021/04/27 13:01:01;;;;;;;5.33;4.83;;;20.60;48.80;;;;;;5064619;28;20900;-81